Hagerman, New Mexico
Current Conditions -  °F | °C
As of 11:51 PM on Friday 24 Oct 2014 (Local Time) from KROW Reporting Station
Clear Clear  
Wind Chill: 58°   Ceiling: Unl
Heat Index: 58°   Visibility: 10mi
Dew Point: 53°   Wind: 3mph
Humidity: 84%   Direction: 190°S
Pressure: 30.17"   Gusts: NA
Location:  33.12°N, 104.33°W
Report Text: KROW 250551Z 19003KT 10SM CLR 14/12 A3017 RMK AO2 SLP168 T01440117 10250 20144 50004
Loading
Personal Weather Stations






























Interactive Weather Map
Tropical Storm Tracking
New forecast layout! Learn more

10-Day Weather Forecast

Advertisements
Track Severe Weather on mobile